sensor_id;sensor_type;location;lat;lon;timestamp;pressure;altitude;pressure_sealevel;temperature;humidity
64876;BME280;51369;49.862;9.908;2023-12-14T00:00:55;97247.44;;;5.57;90.76
64876;BME280;51369;49.862;9.908;2023-12-14T00:03:20;97250.06;;;5.59;90.72
64876;BME280;51369;49.862;9.908;2023-12-14T00:05:45;97243.03;;;5.56;91.17
64876;BME280;51369;49.862;9.908;2023-12-14T00:08:11;97248.56;;;5.52;90.03
64876;BME280;51369;49.862;9.908;2023-12-14T00:10:36;97252.34;;;5.46;90.02
64876;BME280;51369;49.862;9.908;2023-12-14T00:13:02;97257.84;;;5.43;89.97
64876;BME280;51369;49.862;9.908;2023-12-14T00:15:29;97259.81;;;5.38;89.70
64876;BME280;51369;49.862;9.908;2023-12-14T00:17:54;97267.22;;;5.32;90.03
64876;BME280;51369;49.862;9.908;2023-12-14T00:20:20;97263.03;;;5.24;89.48
64876;BME280;51369;49.862;9.908;2023-12-14T00:22:45;97264.31;;;5.16;89.55
64876;BME280;51369;49.862;9.908;2023-12-14T00:25:11;97269.78;;;5.13;89.40
64876;BME280;51369;49.862;9.908;2023-12-14T00:27:36;97269.03;;;5.09;89.24
64876;BME280;51369;49.862;9.908;2023-12-14T00:30:02;97272.88;;;5.02;88.89
64876;BME280;51369;49.862;9.908;2023-12-14T00:32:27;97271.34;;;4.95;89.39
64876;BME280;51369;49.862;9.908;2023-12-14T00:34:53;97277.88;;;4.88;88.46
64876;BME280;51369;49.862;9.908;2023-12-14T00:37:18;97282.56;;;4.81;88.71
64876;BME280;51369;49.862;9.908;2023-12-14T00:39:44;97273.91;;;4.75;88.43
64876;BME280;51369;49.862;9.908;2023-12-14T00:42:09;97282.97;;;4.71;89.38
64876;BME280;51369;49.862;9.908;2023-12-14T00:44:34;97284.00;;;4.67;88.80
64876;BME280;51369;49.862;9.908;2023-12-14T00:46:59;97284.88;;;4.67;89.82
64876;BME280;51369;49.862;9.908;2023-12-14T00:49:25;97288.97;;;4.77;91.68
64876;BME280;51369;49.862;9.908;2023-12-14T00:51:53;97294.72;;;4.90;91.77
64876;BME280;51369;49.862;9.908;2023-12-14T00:54:18;97293.34;;;5.03;93.11
64876;BME280;51369;49.862;9.908;2023-12-14T00:56:43;97297.41;;;5.13;92.54
64876;BME280;51369;49.862;9.908;2023-12-14T00:59:09;97300.72;;;5.20;92.35
64876;BME280;51369;49.862;9.908;2023-12-14T01:01:34;97300.63;;;5.21;92.59
64876;BME280;51369;49.862;9.908;2023-12-14T01:04:00;97305.09;;;5.21;92.10
64876;BME280;51369;49.862;9.908;2023-12-14T01:06:25;97308.88;;;5.17;91.52
64876;BME280;51369;49.862;9.908;2023-12-14T01:08:50;97315.31;;;5.11;90.73
64876;BME280;51369;49.862;9.908;2023-12-14T01:11:16;97316.47;;;5.04;90.52
64876;BME280;51369;49.862;9.908;2023-12-14T01:13:41;97330.03;;;5.00;90.40
64876;BME280;51369;49.862;9.908;2023-12-14T01:16:07;97329.22;;;4.98;90.38
64876;BME280;51369;49.862;9.908;2023-12-14T01:18:32;97339.91;;;4.98;90.90
64876;BME280;51369;49.862;9.908;2023-12-14T01:20:58;97339.91;;;4.98;90.37
64876;BME280;51369;49.862;9.908;2023-12-14T01:23:23;97347.00;;;4.99;90.48
64876;BME280;51369;49.862;9.908;2023-12-14T01:25:48;97346.94;;;5.00;91.67
64876;BME280;51369;49.862;9.908;2023-12-14T01:28:14;97359.28;;;5.04;91.26
64876;BME280;51369;49.862;9.908;2023-12-14T01:30:39;97353.88;;;5.06;92.09
64876;BME280;51369;49.862;9.908;2023-12-14T01:33:05;97368.06;;;5.08;91.71
64876;BME280;51369;49.862;9.908;2023-12-14T01:35:30;97361.84;;;5.07;91.35
64876;BME280;51369;49.862;9.908;2023-12-14T01:37:55;97365.38;;;5.08;90.66
64876;BME280;51369;49.862;9.908;2023-12-14T01:40:21;97373.41;;;5.08;91.73
64876;BME280;51369;49.862;9.908;2023-12-14T01:42:46;97373.41;;;5.08;91.78
64876;BME280;51369;49.862;9.908;2023-12-14T01:45:12;97374.19;;;5.11;91.53
64876;BME280;51369;49.862;9.908;2023-12-14T01:47:40;97378.53;;;5.14;91.66
64876;BME280;51369;49.862;9.908;2023-12-14T01:50:06;97390.81;;;5.19;91.50
64876;BME280;51369;49.862;9.908;2023-12-14T01:52:31;97395.97;;;5.24;92.26
64876;BME280;51369;49.862;9.908;2023-12-14T01:54:56;97389.50;;;5.30;92.84
64876;BME280;51369;49.862;9.908;2023-12-14T01:57:24;97396.28;;;5.40;92.96
64876;BME280;51369;49.862;9.908;2023-12-14T01:59:49;97385.28;;;5.47;93.47
64876;BME280;51369;49.862;9.908;2023-12-14T02:02:15;97392.13;;;5.54;93.29
64876;BME280;51369;49.862;9.908;2023-12-14T02:04:40;97398.31;;;5.56;93.11
64876;BME280;51369;49.862;9.908;2023-12-14T02:07:06;97400.91;;;5.58;92.35
64876;BME280;51369;49.862;9.908;2023-12-14T02:09:31;97409.81;;;5.59;91.91
64876;BME280;51369;49.862;9.908;2023-12-14T02:11:57;97418.72;;;5.59;92.37
64876;BME280;51369;49.862;9.908;2023-12-14T02:14:22;97423.22;;;5.59;92.11
64876;BME280;51369;49.862;9.908;2023-12-14T02:16:48;97423.22;;;5.59;91.79
64876;BME280;51369;49.862;9.908;2023-12-14T02:19:13;97427.53;;;5.63;91.85
64876;BME280;51369;49.862;9.908;2023-12-14T02:21:39;97423.69;;;5.70;92.58
64876;BME280;51369;49.862;9.908;2023-12-14T02:24:04;97421.63;;;5.76;92.62
64876;BME280;51369;49.862;9.908;2023-12-14T02:26:30;97433.84;;;5.83;93.28
64876;BME280;51369;49.862;9.908;2023-12-14T02:28:55;97440.03;;;5.85;92.46
64876;BME280;51369;49.862;9.908;2023-12-14T02:31:21;97439.97;;;5.87;92.67
64876;BME280;51369;49.862;9.908;2023-12-14T02:33:46;97435.47;;;5.87;92.56
64876;BME280;51369;49.862;9.908;2023-12-14T02:36:12;97443.50;;;5.89;92.34
64876;BME280;51369;49.862;9.908;2023-12-14T02:38:37;97447.84;;;5.92;92.39
64876;BME280;51369;49.862;9.908;2023-12-14T02:41:03;97449.47;;;5.96;92.46
64876;BME280;51369;49.862;9.908;2023-12-14T02:43:28;97450.19;;;6.01;92.92
64876;BME280;51369;49.862;9.908;2023-12-14T02:45:53;97447.31;;;6.05;92.95
64876;BME280;51369;49.862;9.908;2023-12-14T02:48:20;97450.75;;;6.09;92.42
64876;BME280;51369;49.862;9.908;2023-12-14T02:50:45;97449.69;;;6.13;92.57
64876;BME280;51369;49.862;9.908;2023-12-14T02:53:11;97457.56;;;6.17;92.82
64876;BME280;51369;49.862;9.908;2023-12-14T02:55:36;97456.50;;;6.22;92.53
64876;BME280;51369;49.862;9.908;2023-12-14T02:58:01;97459.94;;;6.25;92.73
64876;BME280;51369;49.862;9.908;2023-12-14T03:00:27;97467.78;;;6.30;93.13
64876;BME280;51369;49.862;9.908;2023-12-14T03:02:52;97467.59;;;6.34;93.27
64876;BME280;51369;49.862;9.908;2023-12-14T03:05:18;97474.66;;;6.37;92.58
64876;BME280;51369;49.862;9.908;2023-12-14T03:07:43;97471.84;;;6.40;92.77
64876;BME280;51369;49.862;9.908;2023-12-14T03:10:09;97470.97;;;6.39;92.32
64876;BME280;51369;49.862;9.908;2023-12-14T03:12:34;97475.56;;;6.36;92.08
64876;BME280;51369;49.862;9.908;2023-12-14T03:14:59;97482.06;;;6.30;91.10
64876;BME280;51369;49.862;9.908;2023-12-14T03:17:25;97487.72;;;6.23;90.66
64876;BME280;51369;49.862;9.908;2023-12-14T03:19:51;97492.41;;;6.17;90.60
64876;BME280;51369;49.862;9.908;2023-12-14T03:22:17;97488.91;;;6.15;90.59
64876;BME280;51369;49.862;9.908;2023-12-14T03:24:42;97496.00;;;6.16;90.88
64876;BME280;51369;49.862;9.908;2023-12-14T03:27:08;97499.44;;;6.20;91.66
64876;BME280;51369;49.862;9.908;2023-12-14T03:29:33;97499.25;;;6.25;92.02
64876;BME280;51369;49.862;9.908;2023-12-14T03:31:58;97498.19;;;6.29;92.56
64876;BME280;51369;49.862;9.908;2023-12-14T03:34:24;97507.06;;;6.31;92.15
64876;BME280;51369;49.862;9.908;2023-12-14T03:36:50;97512.47;;;6.29;91.44
64876;BME280;51369;49.862;9.908;2023-12-14T03:39:16;97516.09;;;6.28;91.55
64876;BME280;51369;49.862;9.908;2023-12-14T03:41:42;97517.84;;;6.29;91.71
64876;BME280;51369;49.862;9.908;2023-12-14T03:44:07;97522.31;;;6.29;91.41
64876;BME280;51369;49.862;9.908;2023-12-14T03:46:33;97530.31;;;6.30;91.37
64876;BME280;51369;49.862;9.908;2023-12-14T03:48:59;97529.44;;;6.30;91.96
64876;BME280;51369;49.862;9.908;2023-12-14T03:51:25;97532.94;;;6.32;91.75
64876;BME280;51369;49.862;9.908;2023-12-14T03:53:50;97536.53;;;6.31;91.65
64876;BME280;51369;49.862;9.908;2023-12-14T03:56:15;97541.84;;;6.32;91.58
64876;BME280;51369;49.862;9.908;2023-12-14T03:58:41;97548.03;;;6.34;91.90
64876;BME280;51369;49.862;9.908;2023-12-14T04:01:06;97555.06;;;6.37;91.64
64876;BME280;51369;49.862;9.908;2023-12-14T04:03:31;97557.69;;;6.38;92.02
64876;BME280;51369;49.862;9.908;2023-12-14T04:05:57;97559.38;;;6.41;92.23
64876;BME280;51369;49.862;9.908;2023-12-14T04:08:22;97558.44;;;6.42;91.97
64876;BME280;51369;49.862;9.908;2023-12-14T04:10:48;97562.06;;;6.41;91.79
64876;BME280;51369;49.862;9.908;2023-12-14T04:13:13;97568.28;;;6.41;91.41
64876;BME280;51369;49.862;9.908;2023-12-14T04:15:38;97568.34;;;6.40;91.58
64876;BME280;51369;49.862;9.908;2023-12-14T04:18:07;97564.81;;;6.39;91.56
64876;BME280;51369;49.862;9.908;2023-12-14T04:20:32;97569.28;;;6.39;91.63
64876;BME280;51369;49.862;9.908;2023-12-14T04:22:58;97580.00;;;6.39;91.36
64876;BME280;51369;49.862;9.908;2023-12-14T04:25:23;97576.47;;;6.38;91.59
64876;BME280;51369;49.862;9.908;2023-12-14T04:27:48;97587.19;;;6.38;91.33
64876;BME280;51369;49.862;9.908;2023-12-14T04:30:14;97591.66;;;6.38;91.09
64876;BME280;51369;49.862;9.908;2023-12-14T04:32:39;97597.91;;;6.38;91.45
64876;BME280;51369;49.862;9.908;2023-12-14T04:35:05;97592.53;;;6.38;91.40
64876;BME280;51369;49.862;9.908;2023-12-14T04:37:31;97606.88;;;6.37;91.21
64876;BME280;51369;49.862;9.908;2023-12-14T04:39:59;97609.50;;;6.39;91.85
64876;BME280;51369;49.862;9.908;2023-12-14T04:42:24;97608.56;;;6.40;91.38
64876;BME280;51369;49.862;9.908;2023-12-14T04:44:50;97609.50;;;6.39;91.67
64876;BME280;51369;49.862;9.908;2023-12-14T04:47:16;97621.09;;;6.39;91.51
64876;BME280;51369;49.862;9.908;2023-12-14T04:49:41;97621.22;;;6.36;91.20
64876;BME280;51369;49.862;9.908;2023-12-14T04:52:07;97622.16;;;6.35;91.49
64876;BME280;51369;49.862;9.908;2023-12-14T04:54:33;97632.94;;;6.34;91.13
64876;BME280;51369;49.862;9.908;2023-12-14T04:57:00;97624.06;;;6.32;91.21
64876;BME280;51369;49.862;9.908;2023-12-14T04:59:26;97636.59;;;6.31;91.53
64876;BME280;51369;49.862;9.908;2023-12-14T05:01:51;97644.69;;;6.30;91.09
64876;BME280;51369;49.862;9.908;2023-12-14T05:04:16;97648.38;;;6.27;90.90
64876;BME280;51369;49.862;9.908;2023-12-14T05:06:42;97648.44;;;6.26;91.05
64876;BME280;51369;49.862;9.908;2023-12-14T05:09:07;97650.19;;;6.27;91.62
64876;BME280;51369;49.862;9.908;2023-12-14T05:11:32;97648.38;;;6.27;91.68
64876;BME280;51369;49.862;9.908;2023-12-14T05:13:58;97649.19;;;6.29;91.63
64876;BME280;51369;49.862;9.908;2023-12-14T05:16:23;97651.88;;;6.29;91.83
64876;BME280;51369;49.862;9.908;2023-12-14T05:18:55;97653.69;;;6.29;92.09
64876;BME280;51369;49.862;9.908;2023-12-14T05:21:20;97657.22;;;6.29;91.53
64876;BME280;51369;49.862;9.908;2023-12-14T05:23:46;97667.94;;;6.29;91.59
64876;BME280;51369;49.862;9.908;2023-12-14T05:26:11;97670.69;;;6.28;91.55
64876;BME280;51369;49.862;9.908;2023-12-14T05:28:37;97678.78;;;6.26;90.90
64876;BME280;51369;49.862;9.908;2023-12-14T05:31:02;97693.19;;;6.24;90.94
64876;BME280;51369;49.862;9.908;2023-12-14T05:33:28;97696.72;;;6.24;91.53
64876;BME280;51369;49.862;9.908;2023-12-14T05:35:54;97694.06;;;6.24;92.18
64876;BME280;51369;49.862;9.908;2023-12-14T05:38:19;97698.53;;;6.24;91.31
64876;BME280;51369;49.862;9.908;2023-12-14T05:40:45;97711.06;;;6.23;91.68
64876;BME280;51369;49.862;9.908;2023-12-14T05:43:10;97705.72;;;6.23;91.75
64876;BME280;51369;49.862;9.908;2023-12-14T05:45:36;97717.41;;;6.20;91.69
64876;BME280;51369;49.862;9.908;2023-12-14T05:48:02;97713.91;;;6.18;90.87
64876;BME280;51369;49.862;9.908;2023-12-14T05:50:27;97718.41;;;6.18;91.26
64876;BME280;51369;49.862;9.908;2023-12-14T05:52:53;97729.13;;;6.18;91.55
64876;BME280;51369;49.862;9.908;2023-12-14T05:55:19;97727.38;;;6.17;91.50
64876;BME280;51369;49.862;9.908;2023-12-14T05:57:47;97723.75;;;6.18;91.62
64876;BME280;51369;49.862;9.908;2023-12-14T06:00:13;97738.03;;;6.18;91.41
64876;BME280;51369;49.862;9.908;2023-12-14T06:02:38;97742.47;;;6.19;91.97
64876;BME280;51369;49.862;9.908;2023-12-14T06:05:06;97743.34;;;6.20;91.85
64876;BME280;51369;49.862;9.908;2023-12-14T06:07:31;97754.88;;;6.22;91.71
64876;BME280;51369;49.862;9.908;2023-12-14T06:09:57;97752.19;;;6.22;92.03
64876;BME280;51369;49.862;9.908;2023-12-14T06:12:22;97756.63;;;6.23;91.67
64876;BME280;51369;49.862;9.908;2023-12-14T06:14:48;97755.72;;;6.24;91.79
64876;BME280;51369;49.862;9.908;2023-12-14T06:17:13;97742.34;;;6.23;91.38
64876;BME280;51369;49.862;9.908;2023-12-14T06:19:39;97747.78;;;6.21;91.66
64876;BME280;51369;49.862;9.908;2023-12-14T06:22:04;97766.53;;;6.21;91.71
64876;BME280;51369;49.862;9.908;2023-12-14T06:24:29;97774.63;;;6.19;91.54
64876;BME280;51369;49.862;9.908;2023-12-14T06:26:55;97778.25;;;6.18;91.67
64876;BME280;51369;49.862;9.908;2023-12-14T06:29:20;97782.72;;;6.18;91.39
64876;BME280;51369;49.862;9.908;2023-12-14T06:31:46;97786.31;;;6.17;91.71
64876;BME280;51369;49.862;9.908;2023-12-14T06:34:12;97778.25;;;6.18;91.67
64876;BME280;51369;49.862;9.908;2023-12-14T06:36:41;97787.22;;;6.17;91.33
64876;BME280;51369;49.862;9.908;2023-12-14T06:39:07;97797.00;;;6.18;91.81
64876;BME280;51369;49.862;9.908;2023-12-14T06:41:33;97792.47;;;6.20;91.66
64876;BME280;51369;49.862;9.908;2023-12-14T06:43:58;97795.13;;;6.20;91.73
64876;BME280;51369;49.862;9.908;2023-12-14T06:46:23;97804.06;;;6.21;91.75
64876;BME280;51369;49.862;9.908;2023-12-14T06:48:49;97812.94;;;6.23;91.44
64876;BME280;51369;49.862;9.908;2023-12-14T06:51:14;97804.81;;;6.25;92.08
64876;BME280;51369;49.862;9.908;2023-12-14T06:53:42;97813.69;;;6.27;91.77
64876;BME280;51369;49.862;9.908;2023-12-14T06:56:09;97815.44;;;6.28;92.02
64876;BME280;51369;49.862;9.908;2023-12-14T06:58:40;97826.16;;;6.28;92.17
64876;BME280;51369;49.862;9.908;2023-12-14T07:01:06;97826.16;;;6.28;92.09
64876;BME280;51369;49.862;9.908;2023-12-14T07:03:32;97835.03;;;6.30;92.13
64876;BME280;51369;49.862;9.908;2023-12-14T07:05:58;97842.09;;;6.32;92.15
64876;BME280;51369;49.862;9.908;2023-12-14T07:08:24;97833.94;;;6.35;92.27
64876;BME280;51369;49.862;9.908;2023-12-14T07:10:49;97844.56;;;6.38;92.28
64876;BME280;51369;49.862;9.908;2023-12-14T07:13:15;97845.34;;;6.42;92.22
64876;BME280;51369;49.862;9.908;2023-12-14T07:15:40;97859.63;;;6.42;92.12
64876;BME280;51369;49.862;9.908;2023-12-14T07:18:06;97851.63;;;6.41;92.04
64876;BME280;51369;49.862;9.908;2023-12-14T07:20:31;97857.03;;;6.39;91.55
64876;BME280;51369;49.862;9.908;2023-12-14T07:22:57;97871.38;;;6.38;91.38
64876;BME280;51369;49.862;9.908;2023-12-14T07:25:22;97874.13;;;6.37;91.51
64876;BME280;51369;49.862;9.908;2023-12-14T07:27:48;97879.41;;;6.38;91.65
64876;BME280;51369;49.862;9.908;2023-12-14T07:30:13;97874.00;;;6.40;91.59
64876;BME280;51369;49.862;9.908;2023-12-14T07:32:39;97879.31;;;6.41;91.62
64876;BME280;51369;49.862;9.908;2023-12-14T07:35:05;97881.06;;;6.42;91.96
64876;BME280;51369;49.862;9.908;2023-12-14T07:37:30;97890.75;;;6.46;92.23
64876;BME280;51369;49.862;9.908;2023-12-14T07:39:56;97891.53;;;6.50;92.22
64876;BME280;51369;49.862;9.908;2023-12-14T07:42:23;97891.44;;;6.53;92.37
64876;BME280;51369;49.862;9.908;2023-12-14T07:44:48;97902.00;;;6.58;92.59
64876;BME280;51369;49.862;9.908;2023-12-14T07:47:13;97909.84;;;6.64;92.48
64876;BME280;51369;49.862;9.908;2023-12-14T07:49:39;97911.44;;;6.69;92.87
64876;BME280;51369;49.862;9.908;2023-12-14T07:52:04;97908.59;;;6.74;93.03
64876;BME280;51369;49.862;9.908;2023-12-14T07:54:30;97918.28;;;6.78;93.21
64876;BME280;51369;49.862;9.908;2023-12-14T07:56:55;97922.63;;;6.82;92.78
64876;BME280;51369;49.862;9.908;2023-12-14T07:59:20;97925.19;;;6.85;93.11
64876;BME280;51369;49.862;9.908;2023-12-14T08:01:46;97927.75;;;6.88;92.69
64876;BME280;51369;49.862;9.908;2023-12-14T08:04:12;97941.13;;;6.90;92.64
64876;BME280;51369;49.862;9.908;2023-12-14T08:06:37;97940.06;;;6.94;92.77
64876;BME280;51369;49.862;9.908;2023-12-14T08:09:06;97950.69;;;6.97;92.50
64876;BME280;51369;49.862;9.908;2023-12-14T08:11:32;97947.03;;;6.99;92.30
64876;BME280;51369;49.862;9.908;2023-12-14T08:13:57;97945.16;;;7.01;92.63
64876;BME280;51369;49.862;9.908;2023-12-14T08:16:23;97945.09;;;7.03;92.42
64876;BME280;51369;49.862;9.908;2023-12-14T08:18:48;97956.59;;;7.06;92.11
64876;BME280;51369;49.862;9.908;2023-12-14T08:21:14;97965.47;;;7.08;92.32
64876;BME280;51369;49.862;9.908;2023-12-14T08:23:40;97969.00;;;7.10;92.86
64876;BME280;51369;49.862;9.908;2023-12-14T08:26:06;97974.19;;;7.15;92.62
64876;BME280;51369;49.862;9.908;2023-12-14T08:28:34;97979.50;;;7.16;92.59
64876;BME280;51369;49.862;9.908;2023-12-14T08:30:59;97980.34;;;7.18;92.88
64876;BME280;51369;49.862;9.908;2023-12-14T08:33:28;97991.91;;;7.21;92.50
64876;BME280;51369;49.862;9.908;2023-12-14T08:35:53;98005.28;;;7.22;92.53
64876;BME280;51369;49.862;9.908;2023-12-14T08:38:18;98003.41;;;7.24;92.60
64876;BME280;51369;49.862;9.908;2023-12-14T08:40:44;98008.63;;;7.29;92.76
64876;BME280;51369;49.862;9.908;2023-12-14T08:43:10;98013.00;;;7.31;92.63
64876;BME280;51369;49.862;9.908;2023-12-14T08:45:35;98020.06;;;7.34;92.75
64876;BME280;51369;49.862;9.908;2023-12-14T08:48:00;98021.66;;;7.39;92.54
64876;BME280;51369;49.862;9.908;2023-12-14T08:50:27;98034.09;;;7.42;92.62
64876;BME280;51369;49.862;9.908;2023-12-14T08:52:52;98035.81;;;7.44;92.07
64876;BME280;51369;49.862;9.908;2023-12-14T08:55:18;98036.69;;;7.45;92.07
64876;BME280;51369;49.862;9.908;2023-12-14T08:57:43;98038.38;;;7.47;91.81
64876;BME280;51369;49.862;9.908;2023-12-14T09:00:09;98053.50;;;7.50;92.12
64876;BME280;51369;49.862;9.908;2023-12-14T09:02:35;98049.00;;;7.50;92.29
64876;BME280;51369;49.862;9.908;2023-12-14T09:05:01;98059.72;;;7.52;91.97
64876;BME280;51369;49.862;9.908;2023-12-14T09:07:26;98067.72;;;7.54;92.24
64876;BME280;51369;49.862;9.908;2023-12-14T09:09:51;98065.84;;;7.56;92.34
64876;BME280;51369;49.862;9.908;2023-12-14T09:12:17;98064.84;;;7.58;92.17
64876;BME280;51369;49.862;9.908;2023-12-14T09:14:42;98071.94;;;7.61;92.15
64876;BME280;51369;49.862;9.908;2023-12-14T09:17:08;98076.22;;;7.66;92.56
64876;BME280;51369;49.862;9.908;2023-12-14T09:19:33;98076.09;;;7.69;92.27
64876;BME280;51369;49.862;9.908;2023-12-14T09:21:58;98076.81;;;7.74;92.30
64876;BME280;51369;49.862;9.908;2023-12-14T09:24:24;98076.69;;;7.77;92.39
64876;BME280;51369;49.862;9.908;2023-12-14T09:26:49;98082.84;;;7.81;92.08
64876;BME280;51369;49.862;9.908;2023-12-14T09:29:15;98081.81;;;7.85;91.95
64876;BME280;51369;49.862;9.908;2023-12-14T09:31:44;98087.94;;;7.89;92.39
64876;BME280;51369;49.862;9.908;2023-12-14T09:34:10;98096.78;;;7.92;91.88
64876;BME280;51369;49.862;9.908;2023-12-14T09:36:36;98093.91;;;7.97;91.81
64876;BME280;51369;49.862;9.908;2023-12-14T09:39:02;98094.69;;;8.00;92.42
64876;BME280;51369;49.862;9.908;2023-12-14T09:41:28;98111.50;;;8.05;92.03
64876;BME280;51369;49.862;9.908;2023-12-14T09:43:53;98110.41;;;8.11;92.29
64876;BME280;51369;49.862;9.908;2023-12-14T09:46:20;98116.56;;;8.14;92.43
64876;BME280;51369;49.862;9.908;2023-12-14T09:48:46;98114.63;;;8.18;92.14
64876;BME280;51369;49.862;9.908;2023-12-14T09:51:12;98118.03;;;8.23;91.56
64876;BME280;51369;49.862;9.908;2023-12-14T09:53:38;98122.41;;;8.26;91.99
64876;BME280;51369;49.862;9.908;2023-12-14T09:56:03;98130.31;;;8.30;91.84
64876;BME280;51369;49.862;9.908;2023-12-14T09:58:34;98133.78;;;8.34;91.68
64876;BME280;51369;49.862;9.908;2023-12-14T10:00:59;98123.78;;;8.37;92.03
64876;BME280;51369;49.862;9.908;2023-12-14T10:03:28;98115.66;;;8.39;91.68
64876;BME280;51369;49.862;9.908;2023-12-14T10:05:55;98130.81;;;8.41;91.11
64876;BME280;51369;49.862;9.908;2023-12-14T10:08:21;98137.00;;;8.43;91.51
64876;BME280;51369;49.862;9.908;2023-12-14T10:10:48;98145.84;;;8.47;90.76
64876;BME280;51369;49.862;9.908;2023-12-14T10:13:18;98142.09;;;8.51;90.72
64876;BME280;51369;49.862;9.908;2023-12-14T10:15:46;98146.44;;;8.55;90.98
64876;BME280;51369;49.862;9.908;2023-12-14T10:18:21;98144.50;;;8.59;90.95
64876;BME280;51369;49.862;9.908;2023-12-14T10:20:46;98150.66;;;8.62;90.75
64876;BME280;51369;49.862;9.908;2023-12-14T10:23:12;98147.00;;;8.63;90.31
64876;BME280;51369;49.862;9.908;2023-12-14T10:25:38;98147.75;;;8.67;90.11
64876;BME280;51369;49.862;9.908;2023-12-14T10:28:04;98152.19;;;8.68;90.11
64876;BME280;51369;49.862;9.908;2023-12-14T10:30:29;98149.44;;;8.69;90.03
64876;BME280;51369;49.862;9.908;2023-12-14T10:32:56;98156.56;;;8.70;89.82
64876;BME280;51369;49.862;9.908;2023-12-14T10:35:21;98146.63;;;8.72;89.27
64876;BME280;51369;49.862;9.908;2023-12-14T10:37:49;98153.75;;;8.73;90.04
64876;BME280;51369;49.862;9.908;2023-12-14T10:40:16;98159.09;;;8.75;88.86
64876;BME280;51369;49.862;9.908;2023-12-14T10:42:43;98160.78;;;8.77;89.81
64876;BME280;51369;49.862;9.908;2023-12-14T10:45:14;98156.28;;;8.78;89.61
64876;BME280;51369;49.862;9.908;2023-12-14T10:47:45;98163.41;;;8.79;89.00
64876;BME280;51369;49.862;9.908;2023-12-14T10:50:11;98157.09;;;8.80;88.52
64876;BME280;51369;49.862;9.908;2023-12-14T10:52:38;98163.47;;;8.77;88.30
64876;BME280;51369;49.862;9.908;2023-12-14T10:55:07;98167.91;;;8.78;88.81
64876;BME280;51369;49.862;9.908;2023-12-14T10:57:35;98167.91;;;8.78;87.63
64876;BME280;51369;49.862;9.908;2023-12-14T11:00:03;98170.69;;;8.77;87.66
64876;BME280;51369;49.862;9.908;2023-12-14T11:02:30;98172.44;;;8.78;87.57
64876;BME280;51369;49.862;9.908;2023-12-14T11:05:02;98173.31;;;8.78;87.12
64876;BME280;51369;49.862;9.908;2023-12-14T11:10:13;98179.63;;;8.77;87.84
64876;BME280;51369;49.862;9.908;2023-12-14T11:12:54;98184.19;;;8.75;87.58
64876;BME280;51369;49.862;9.908;2023-12-14T11:15:21;98189.56;;;8.75;86.93
64876;BME280;51369;49.862;9.908;2023-12-14T11:20:58;98204.03;;;8.73;87.54
64876;BME280;51369;49.862;9.908;2023-12-14T11:25:52;98214.78;;;8.73;86.74
64876;BME280;51369;49.862;9.908;2023-12-14T11:28:19;98219.28;;;8.72;86.49
64876;BME280;51369;49.862;9.908;2023-12-14T11:30:45;98214.91;;;8.70;87.12
64876;BME280;51369;49.862;9.908;2023-12-14T11:33:12;98220.34;;;8.68;86.23
64876;BME280;51369;49.862;9.908;2023-12-14T11:35:37;98213.31;;;8.66;86.06
64876;BME280;51369;49.862;9.908;2023-12-14T11:38:03;98224.13;;;8.64;85.99
64876;BME280;51369;49.862;9.908;2023-12-14T11:40:36;98232.25;;;8.63;85.77
64876;BME280;51369;49.862;9.908;2023-12-14T11:43:03;98230.50;;;8.62;86.04
64876;BME280;51369;49.862;9.908;2023-12-14T11:45:35;98234.13;;;8.61;86.27
64876;BME280;51369;49.862;9.908;2023-12-14T11:48:02;98243.13;;;8.60;86.48
64876;BME280;51369;49.862;9.908;2023-12-14T11:50:30;98246.75;;;8.59;86.28
64876;BME280;51369;49.862;9.908;2023-12-14T11:52:56;98251.25;;;8.58;86.08
64876;BME280;51369;49.862;9.908;2023-12-14T11:55:21;98253.06;;;8.58;85.99
64876;BME280;51369;49.862;9.908;2023-12-14T11:57:47;98250.44;;;8.56;86.16
64876;BME280;51369;49.862;9.908;2023-12-14T12:00:13;98249.56;;;8.56;86.14
64876;BME280;51369;49.862;9.908;2023-12-14T12:02:39;98247.75;;;8.56;86.51
64876;BME280;51369;49.862;9.908;2023-12-14T12:05:06;98246.75;;;8.59;86.43
64876;BME280;51369;49.862;9.908;2023-12-14T12:07:32;98243.13;;;8.60;87.23
64876;BME280;51369;49.862;9.908;2023-12-14T12:09:58;98247.53;;;8.62;86.49
64876;BME280;51369;49.862;9.908;2023-12-14T12:12:24;98251.91;;;8.65;87.40
64876;BME280;51369;49.862;9.908;2023-12-14T12:14:49;98254.41;;;8.69;86.71
64876;BME280;51369;49.862;9.908;2023-12-14T12:17:18;98259.72;;;8.71;87.01
64876;BME280;51369;49.862;9.908;2023-12-14T12:19:46;98261.50;;;8.72;86.41
64876;BME280;51369;49.862;9.908;2023-12-14T12:22:12;98254.22;;;8.74;86.60
64876;BME280;51369;49.862;9.908;2023-12-14T12:24:37;98263.19;;;8.74;86.52
64876;BME280;51369;49.862;9.908;2023-12-14T12:27:03;98264.13;;;8.73;86.78
64876;BME280;51369;49.862;9.908;2023-12-14T12:29:29;98270.44;;;8.72;86.08
64876;BME280;51369;49.862;9.908;2023-12-14T12:31:55;98277.63;;;8.72;86.02
64876;BME280;51369;49.862;9.908;2023-12-14T12:34:21;98279.50;;;8.70;85.91
64876;BME280;51369;49.862;9.908;2023-12-14T12:36:46;98284.00;;;8.69;85.82
64876;BME280;51369;49.862;9.908;2023-12-14T12:39:12;98280.59;;;8.66;85.64
64876;BME280;51369;49.862;9.908;2023-12-14T12:41:37;98276.19;;;8.63;85.40
64876;BME280;51369;49.862;9.908;2023-12-14T12:44:04;98272.63;;;8.63;85.50
64876;BME280;51369;49.862;9.908;2023-12-14T12:46:36;98276.25;;;8.62;85.68
64876;BME280;51369;49.862;9.908;2023-12-14T12:49:03;98280.75;;;8.61;86.26
64876;BME280;51369;49.862;9.908;2023-12-14T12:51:29;98286.19;;;8.60;85.34
64876;BME280;51369;49.862;9.908;2023-12-14T12:53:56;98279.09;;;8.57;85.95
64876;BME280;51369;49.862;9.908;2023-12-14T12:56:23;98283.66;;;8.55;85.50
64876;BME280;51369;49.862;9.908;2023-12-14T12:58:49;98282.78;;;8.55;85.22
64876;BME280;51369;49.862;9.908;2023-12-14T13:01:15;98292.66;;;8.54;85.92
64876;BME280;51369;49.862;9.908;2023-12-14T13:03:41;98299.88;;;8.54;86.00
64876;BME280;51369;49.862;9.908;2023-12-14T13:06:06;98300.81;;;8.53;85.14
64876;BME280;51369;49.862;9.908;2023-12-14T13:08:31;98311.56;;;8.53;85.34
64876;BME280;51369;49.862;9.908;2023-12-14T13:10:57;98304.31;;;8.55;86.14